Time;durP1;ratioP1;P1;durP2;ratioP2;P2;SDS_P1;SDS_P2;PMS_P1;PMS_P2;Temp;Humidity;BMP_temperature;BMP_pressure;BME280_temperature;BME280_humidity;BME280_pressure;Samples;Min_cycle;Max_cycle;Signal;HPM_P1;HPM_P2
2021/12/27 16:18:59;;;;;;;38.17;21.60;;;;;;;8.03;100.00;98967.19;5069961;28;20379;-69
2021/12/27 16:21:44;;;;;;;32.38;18.60;;;;;;;7.98;100.00;98969.47;5070372;28;20129;-70
2021/12/27 16:24:27;;;;;;;44.95;27.05;;;;;;;7.95;100.00;98973.25;5070304;28;20055;-70
2021/12/27 16:27:12;;;;;;;38.70;23.27;;;;;;;7.94;100.00;98981.41;5068986;28;20067;-71
2021/12/27 16:29:56;;;;;;;43.80;25.63;;;;;;;7.92;100.00;98976.25;5068877;28;20412;-70
2021/12/27 16:32:41;;;;;;;30.05;18.95;;;;;;;7.90;100.00;98977.38;5070278;28;20051;-71
2021/12/27 16:35:25;;;;;;;27.35;17.38;;;;;;;7.91;100.00;98981.69;5069601;28;20098;-70
2021/12/27 16:38:09;;;;;;;26.35;16.58;;;;;;;7.89;100.00;98971.25;5068738;28;20121;-71
2021/12/27 16:40:54;;;;;;;21.30;13.05;;;;;;;7.88;100.00;98976.72;5068418;28;20052;-70
2021/12/27 16:43:38;;;;;;;24.50;15.93;;;;;;;7.88;100.00;98984.69;5068517;28;20052;-71
2021/12/27 16:46:22;;;;;;;23.83;14.98;;;;;;;7.91;100.00;98981.69;5069811;28;20098;-71
2021/12/27 16:49:08;;;;;;;22.58;15.50;;;;;;;7.90;100.00;98985.34;5069610;28;20535;-70
2021/12/27 16:51:51;;;;;;;23.45;16.17;;;;;;;7.90;100.00;98990.66;5054283;28;20554;-70
2021/12/27 16:54:36;;;;;;;34.10;22.45;;;;;;;7.84;100.00;98986.00;5069444;28;20078;-71
2021/12/27 16:57:19;;;;;;;32.90;20.05;;;;;;;7.85;100.00;98985.00;5068337;28;20071;-70
2021/12/27 17:00:06;;;;;;;30.48;22.50;;;;;;;7.82;100.00;98988.81;5069259;28;20131;-71
2021/12/27 17:02:50;;;;;;;33.17;21.92;;;;;;;7.88;100.00;99003.25;5069295;28;20083;-70
2021/12/27 17:05:34;;;;;;;;;;;;;;;7.93;100.00;98998.31;5069395;28;20094;-69
2021/12/27 17:08:19;;;;;;;30.48;21.33;;;;;;;8.04;100.00;99000.69;5054139;28;19977;-71
2021/12/27 17:11:03;;;;;;;27.70;18.60;;;;;;;7.86;100.00;99000.75;5067766;28;20047;-70
2021/12/27 17:13:47;;;;;;;26.58;17.30;;;;;;;7.91;100.00;99000.28;5067764;28;20097;-71
2021/12/27 17:16:31;;;;;;;22.90;13.93;;;;;;;7.91;100.00;98997.63;5068299;28;20043;-71
2021/12/27 17:19:17;;;;;;;29.65;20.98;;;;;;;7.91;100.00;98997.63;5067924;28;20056;-69
2021/12/27 17:22:03;;;;;;;26.00;15.80;;;;;;;7.93;100.00;99000.97;5068625;28;20102;-70
2021/12/27 17:24:47;;;;;;;28.23;19.17;;;;;;;7.83;100.00;98990.47;5068590;28;20128;-70
2021/12/27 17:27:31;;;;;;;22.70;11.98;;;;;;;7.78;100.00;98997.22;5068828;28;20059;-71
2021/12/27 17:30:17;;;;;;;23.58;14.50;;;;;;;7.75;100.00;98997.56;5056054;28;20048;-70
2021/12/27 17:33:01;;;;;;;17.02;12.05;;;;;;;7.83;100.00;99005.56;5040129;28;20047;-71
2021/12/27 17:35:45;;;;;;;;;;;;;;;7.71;100.00;99006.78;5054716;28;20512;-70
2021/12/27 17:38:29;;;;;;;24.33;13.80;;;;;;;7.74;100.00;99011.81;5040042;28;19919;-69
2021/12/27 17:41:16;;;;;;;16.67;12.30;;;;;;;7.82;100.00;99006.56;5055470;28;20052;-70
2021/12/27 17:44:00;;;;;;;18.77;13.50;;;;;;;7.83;100.00;99001.06;5054326;28;20048;-70
2021/12/27 17:46:45;;;;;;;21.85;13.55;;;;;;;7.77;100.00;99000.88;5055185;28;20087;-70
2021/12/27 17:49:30;;;;;;;20.25;13.02;;;;;;;7.82;100.00;99006.56;5053870;28;20503;-71
2021/12/27 17:52:14;;;;;;;16.27;11.05;;;;;;;7.83;100.00;99001.06;5055028;28;20507;-70
2021/12/27 17:54:58;;;;;;;25.23;13.70;;;;;;;7.69;100.00;99014.06;5054794;28;20128;-69
2021/12/27 17:57:45;;;;;;;21.10;13.68;;;;;;;7.68;100.00;99017.72;5054997;28;20047;-71
2021/12/27 18:00:30;;;;;;;28.02;15.80;;;;;;;7.66;100.00;99012.59;5054217;28;20059;-71
2021/12/27 18:03:14;;;;;;;20.50;13.10;;;;;;;7.71;100.00;99022.69;5055191;28;20114;-71
2021/12/27 18:06:03;;;;;;;23.27;13.52;;;;;;;7.75;100.00;99019.59;5053814;28;20475;-71
2021/12/27 18:08:49;;;;;;;19.40;12.85;;;;;;;7.74;100.00;99022.41;5054955;28;20135;-70
2021/12/27 18:11:33;;;;;;;43.08;28.20;;;;;;;7.88;100.00;99024.47;5053980;28;20052;-71
2021/12/27 18:14:19;;;;;;;24.55;15.70;;;;;;;7.90;100.00;99011.88;5053871;28;20051;-71
2021/12/27 18:17:05;;;;;;;25.83;15.90;;;;;;;7.85;100.00;99024.81;5054389;28;20419;-71
2021/12/27 18:19:49;;;;;;;20.55;13.82;;;;;;;7.84;100.00;99025.78;5054273;28;20087;-71
2021/12/27 18:22:34;;;;;;;21.77;12.95;;;;;;;7.89;100.00;99023.50;5053594;28;20048;-71
2021/12/27 18:25:19;;;;;;;16.35;11.13;;;;;;;7.90;100.00;99033.94;5039265;28;20052;-71
2021/12/27 18:28:03;;;;;;;18.25;13.23;;;;;;;7.87;100.00;99033.44;5053660;28;20036;-70
2021/12/27 18:30:48;;;;;;;30.33;17.83;;;;;;;7.83;100.00;99026.78;5053226;28;20075;-71
2021/12/27 18:33:32;;;;;;;30.75;18.40;;;;;;;7.87;100.00;99025.47;5054398;28;20048;-70
2021/12/27 18:36:16;;;;;;;32.05;18.45;;;;;;;7.85;100.00;99024.81;5053076;28;20079;-71
2021/12/27 18:39:00;;;;;;;34.60;21.33;;;;;;;7.88;100.00;99019.16;5052935;28;20059;-71
2021/12/27 18:41:44;;;;;;;33.92;20.98;;;;;;;7.90;100.00;99020.69;5052788;28;20051;-71
2021/12/27 18:44:28;;;;;;;;;;;;;;;7.88;100.00;99019.16;5054577;28;20044;-71
2021/12/27 18:47:12;;;;;;;33.90;21.63;;;;;;;7.87;100.00;99023.66;5053042;28;20403;-71
2021/12/27 18:49:56;;;;;;;34.55;20.88;;;;;;;7.88;100.00;99020.03;5052861;28;20354;-71
2021/12/27 18:52:40;;;;;;;31.50;20.45;;;;;;;7.91;100.00;99016.19;5052980;28;20421;-70
2021/12/27 18:55:29;;;;;;;30.10;18.92;;;;;;;7.93;100.00;99006.28;5052983;28;20079;-71
2021/12/27 18:58:13;;;;;;;29.65;19.10;;;;;;;7.99;100.00;99008.28;5053706;28;20083;-70
2021/12/27 19:00:57;;;;;;;;;;;;;;;8.03;100.00;99013.13;5038855;28;20056;-70
2021/12/27 19:03:41;;;;;;;27.58;17.35;;;;;;;8.08;100.00;99020.59;5053629;28;20344;-71
2021/12/27 19:06:24;;;;;;;28.75;18.42;;;;;;;8.04;100.00;99019.28;5052779;28;20098;-71
2021/12/27 19:09:09;;;;;;;28.38;18.55;;;;;;;8.08;100.00;99025.91;5038522;28;20052;-70
2021/12/27 19:11:54;;;;;;;30.65;17.55;;;;;;;8.10;100.00;99021.28;5052513;28;20468;-70
2021/12/27 19:14:37;;;;;;;25.10;14.98;;;;;;;8.19;100.00;99030.97;5052398;28;20549;-70
2021/12/27 19:17:22;;;;;;;21.77;13.60;;;;;;;8.21;100.00;99026.34;5053199;28;20056;-70
2021/12/27 19:20:07;;;;;;;19.75;13.07;;;;;;;8.21;100.00;99026.34;5053170;28;20148;-71
2021/12/27 19:22:52;;;;;;;15.18;9.73;;;;;;;8.29;100.00;99029.03;5038529;28;20056;-70
2021/12/27 19:25:37;;;;;;;8.85;6.70;;;;;;;8.34;100.00;99021.44;5038229;28;20047;-70
2021/12/27 19:28:21;;;;;;;7.78;4.65;;;;;;;8.54;100.00;99022.84;5052332;28;20047;-70
2021/12/27 19:31:05;;;;;;;7.07;4.18;;;;;;;8.57;100.00;99028.63;5053409;28;20052;-70
2021/12/27 19:33:48;;;;;;;4.90;3.58;;;;;;;8.67;100.00;99033.81;5052956;28;20425;-69
2021/12/27 19:36:32;;;;;;;;;;;;;;;8.69;100.00;99032.69;5038450;28;20055;-70
2021/12/27 19:39:16;;;;;;;4.03;3.22;;;;;;;8.74;100.00;99029.50;5052371;28;19919;-70
2021/12/27 19:42:02;;;;;;;3.65;2.80;;;;;;;8.77;100.00;99039.81;5051723;28;20094;-70
2021/12/27 19:44:46;;;;;;;3.78;2.72;;;;;;;8.81;100.00;99030.53;5052047;28;20047;-71
2021/12/27 19:47:30;;;;;;;4.30;2.90;;;;;;;8.76;100.00;99030.19;5052752;28;20186;-70
2021/12/27 19:50:14;;;;;;;4.72;2.50;;;;;;;8.77;100.00;99023.88;5052149;28;20052;-70
2021/12/27 19:52:59;;;;;;;2.65;2.45;;;;;;;8.84;100.00;99024.88;5051803;28;20415;-71
2021/12/27 19:55:43;;;;;;;4.72;2.40;;;;;;;8.86;100.00;99028.22;5037549;28;20098;-70
2021/12/27 19:58:27;;;;;;;3.42;2.63;;;;;;;8.83;100.00;99034.69;5052822;28;20554;-71
2021/12/27 20:01:11;;;;;;;4.18;2.65;;;;;;;8.82;100.00;99026.88;5052823;28;20048;-70
2021/12/27 20:03:55;;;;;;;3.85;2.20;;;;;;;8.84;100.00;99028.38;5052551;28;20047;-70
2021/12/27 20:06:39;;;;;;;4.63;2.55;;;;;;;8.86;100.00;99020.25;5053412;28;20114;-70
2021/12/27 20:09:24;;;;;;;2.38;2.10;;;;;;;8.92;100.00;99033.72;5051534;28;20044;-70
2021/12/27 20:12:08;;;;;;;2.45;2.10;;;;;;;8.96;100.00;99007.66;5051667;28;20059;-70
2021/12/27 20:14:52;;;;;;;2.45;2.10;;;;;;;8.95;100.00;99022.75;5051385;28;20385;-70
2021/12/27 20:17:36;;;;;;;3.70;2.20;;;;;;;8.93;100.00;99030.06;5052425;28;20102;-70
2021/12/27 20:20:22;;;;;;;2.33;2.13;;;;;;;8.92;100.00;99022.25;5037243;28;20482;-71
2021/12/27 20:23:05;;;;;;;3.13;2.72;;;;;;;8.94;100.00;99025.56;5052874;28;20499;-70
2021/12/27 20:25:49;;;;;;;3.45;2.47;;;;;;;8.90;100.00;99017.09;5052410;28;20543;-70
2021/12/27 20:28:34;;;;;;;3.88;2.80;;;;;;;8.93;100.00;99029.22;5051506;28;20040;-68
2021/12/27 20:31:18;;;;;;;5.43;3.42;;;;;;;8.86;100.00;99022.91;5037189;28;20051;-70
2021/12/27 20:34:02;;;;;;;4.75;3.85;;;;;;;8.78;100.00;99036.19;5052645;28;20571;-70
2021/12/27 20:36:47;;;;;;;5.30;4.15;;;;;;;8.72;100.00;99036.81;5051447;28;20071;-69
2021/12/27 20:39:31;;;;;;;6.10;4.65;;;;;;;8.72;100.00;99034.16;5052500;28;20051;-70
2021/12/27 20:42:14;;;;;;;;;;;;;;;8.70;100.00;99028.19;5051860;28;20136;-70
2021/12/27 20:45:00;;;;;;;6.10;5.00;;;;;;;8.71;100.00;99035.16;5051306;28;19966;-70
2021/12/27 20:47:45;;;;;;;6.53;4.88;;;;;;;8.73;100.00;99025.19;5052190;28;20095;-70
2021/12/27 20:50:31;;;;;;;6.95;4.72;;;;;;;8.68;100.00;99040.78;5052292;28;20128;-70
2021/12/27 20:53:18;;;;;;;8.43;5.90;;;;;;;8.64;100.00;99029.66;5052480;28;20179;-70
2021/12/27 20:56:02;;;;;;;11.85;6.65;;;;;;;8.63;100.00;99029.81;5051144;28;20059;-70
2021/12/27 20:58:46;;;;;;;12.90;6.90;;;;;;;8.62;100.00;99038.78;5051180;28;20075;-71
2021/12/27 21:01:30;;;;;;;11.48;7.18;;;;;;;8.61;100.00;99042.41;5050901;28;20056;-70
2021/12/27 21:04:14;;;;;;;17.83;8.82;;;;;;;8.63;100.00;99037.78;5052113;28;20132;-70
2021/12/27 21:06:59;;;;;;;10.32;7.43;;;;;;;8.64;100.00;99034.16;5055971;28;20056;-70
2021/12/27 21:09:43;;;;;;;12.40;8.18;;;;;;;8.64;100.00;99039.47;5054680;28;20098;-69
2021/12/27 21:12:28;;;;;;;13.50;7.97;;;;;;;8.62;100.00;99046.75;5055698;28;20135;-71
2021/12/27 21:15:12;;;;;;;11.65;8.85;;;;;;;8.65;100.00;99047.25;5040748;28;20105;-70
2021/12/27 21:17:56;;;;;;;12.50;7.97;;;;;;;8.68;100.00;99046.91;5055565;28;20111;-69
2021/12/27 21:20:40;;;;;;;13.77;8.38;;;;;;;8.67;100.00;99047.09;5054650;28;20511;-70
2021/12/27 21:23:24;;;;;;;15.73;9.52;;;;;;;8.68;100.00;99046.91;5040574;28;20095;-70
2021/12/27 21:26:08;;;;;;;17.75;9.80;;;;;;;8.73;100.00;99043.78;5054613;28;20051;-69
2021/12/27 21:28:52;;;;;;;12.90;9.30;;;;;;;8.77;100.00;99045.94;5055613;28;20062;-70
2021/12/27 21:31:36;;;;;;;12.30;7.82;;;;;;;8.80;100.00;99044.81;5054589;28;20056;-70
2021/12/27 21:34:20;;;;;;;11.80;7.88;;;;;;;8.81;100.00;99052.63;5055744;28;20083;-71
2021/12/27 21:37:04;;;;;;;11.85;7.00;;;;;;;8.83;100.00;99055.09;5054466;28;20051;-70
2021/12/27 21:39:48;;;;;;;9.40;6.40;;;;;;;8.85;100.00;99053.13;5055596;28;20535;-70
2021/12/27 21:42:32;;;;;;;12.27;6.32;;;;;;;8.86;100.00;99041.50;5055163;28;20507;-70
2021/12/27 21:45:16;;;;;;;;;;;;;;;8.97;100.00;99030.56;5055649;28;20052;-70
2021/12/27 21:48:00;;;;;;;10.65;5.65;;;;;;;8.94;100.00;99034.38;5054289;28;19963;-70
2021/12/27 21:50:44;;;;;;;9.57;6.05;;;;;;;8.97;100.00;99033.22;5054871;28;20466;-70
2021/12/27 21:53:28;;;;;;;7.57;5.53;;;;;;;9.00;100.00;99046.19;5054135;28;20099;-70
2021/12/27 21:56:11;;;;;;;7.88;5.90;;;;;;;8.95;100.00;99041.34;5054062;28;20052;-70
2021/12/27 21:58:55;;;;;;;11.23;6.03;;;;;;;9.02;100.00;99049.50;5054920;28;20090;-70
2021/12/27 22:01:39;;;;;;;8.25;5.63;;;;;;;9.02;100.00;99054.81;5054991;28;20240;-69
2021/12/27 22:04:23;;;;;;;6.72;5.18;;;;;;;9.00;100.00;99046.19;5054787;28;20048;-70
2021/12/27 22:07:07;;;;;;;;;;;;;;;9.02;100.00;99055.66;5054274;28;20116;-70
2021/12/27 22:09:51;;;;;;;7.13;5.07;;;;;;;9.02;100.00;99050.34;5039654;28;19920;-70
2021/12/27 22:12:35;;;;;;;;;;;;;;;9.07;100.00;99060.50;5040121;28;20052;-70
2021/12/27 22:15:20;;;;;;;8.63;4.78;;;;;;;9.04;100.00;99052.81;5053569;28;20021;-70
2021/12/27 22:18:04;;;;;;;8.63;4.32;;;;;;;9.01;100.00;99053.16;5053146;28;20071;-70
2021/12/27 22:20:48;;;;;;;7.75;4.22;;;;;;;8.98;100.00;99048.19;5053388;28;20105;-70
2021/12/27 22:23:33;;;;;;;8.35;4.38;;;;;;;9.00;100.00;99049.69;5053526;28;20091;-70
2021/12/27 22:26:17;;;;;;;6.20;4.45;;;;;;;8.96;100.00;99042.19;5053501;28;20044;-71
2021/12/27 22:29:01;;;;;;;7.28;4.30;;;;;;;8.93;100.00;99039.84;5054475;28;20047;-70
2021/12/27 22:31:45;;;;;;;8.88;4.07;;;;;;;8.94;100.00;99036.19;5053166;28;20056;-70
2021/12/27 22:34:29;;;;;;;7.07;3.95;;;;;;;8.90;100.00;99035.72;5053367;28;20131;-70
2021/12/27 22:37:13;;;;;;;9.48;4.03;;;;;;;8.95;100.00;99045.84;5053977;28;20052;-69
2021/12/27 22:39:57;;;;;;;7.55;4.10;;;;;;;8.92;100.00;99039.03;5054235;28;20275;-70
2021/12/27 22:42:41;;;;;;;10.75;3.53;;;;;;;8.91;100.00;99041.84;5054197;28;20102;-71
2021/12/27 22:45:26;;;;;;;11.63;4.20;;;;;;;8.95;100.00;99036.03;5052996;28;20120;-70
2021/12/27 22:48:10;;;;;;;9.88;3.70;;;;;;;8.87;100.00;99043.16;5053939;28;20094;-70
2021/12/27 22:50:57;;;;;;;7.57;3.65;;;;;;;8.83;100.00;99040.00;5053746;28;20048;-70
2021/12/27 22:53:41;;;;;;;9.18;3.65;;;;;;;8.88;100.00;99031.53;5053964;28;20044;-70
2021/12/27 22:56:25;;;;;;;7.82;3.90;;;;;;;8.93;100.00;99029.22;5052933;28;20094;-70
2021/12/27 22:59:09;;;;;;;7.40;3.75;;;;;;;8.87;100.00;99027.22;5053842;28;20202;-71
2021/12/27 23:01:53;;;;;;;;;;;;;;;8.95;100.00;99032.56;5052963;28;20059;-71
2021/12/27 23:04:37;;;;;;;10.27;3.25;;;;;;;8.92;100.00;99025.75;5052583;28;19920;-70
2021/12/27 23:07:21;;;;;;;10.80;3.50;;;;;;;8.99;100.00;99015.28;5052716;28;20112;-70
2021/12/27 23:10:06;;;;;;;8.43;3.00;;;;;;;9.08;100.00;99011.63;5052569;28;20102;-71
2021/12/27 23:12:49;;;;;;;11.68;3.20;;;;;;;9.00;100.00;99011.63;5052447;28;20051;-71
2021/12/27 23:15:33;;;;;;;10.68;3.88;;;;;;;9.06;100.00;99003.00;5053851;28;20129;-70
2021/12/27 23:18:17;;;;;;;11.48;3.22;;;;;;;9.03;100.00;99000.66;5053168;28;20052;-71
2021/12/27 23:21:02;;;;;;;17.48;3.40;;;;;;;8.96;100.00;98992.50;5052172;28;20056;-69
2021/12/27 23:23:46;;;;;;;13.85;3.70;;;;;;;9.03;100.00;99003.31;5052397;28;20555;-71
2021/12/27 23:26:29;;;;;;;17.67;4.65;;;;;;;9.04;100.00;99010.28;5052670;28;20051;-70
2021/12/27 23:29:13;;;;;;;11.10;3.75;;;;;;;9.04;100.00;99011.13;5052303;28;20397;-70
2021/12/27 23:31:59;;;;;;;12.80;3.15;;;;;;;9.14;100.00;99016.28;5053268;28;20056;-70
2021/12/27 23:34:44;;;;;;;6.43;3.08;;;;;;;9.10;100.00;99014.97;5052210;28;20056;-71
2021/12/27 23:37:27;;;;;;;11.50;3.60;;;;;;;9.16;100.00;99009.00;5052340;28;20056;-70
2021/12/27 23:40:12;;;;;;;10.02;3.10;;;;;;;9.13;100.00;99009.31;5053134;28;20056;-71
2021/12/27 23:42:56;;;;;;;9.43;3.40;;;;;;;9.13;100.00;99001.31;5052918;28;20551;-71
2021/12/27 23:45:41;;;;;;;12.85;3.33;;;;;;;9.19;100.00;99006.00;5053108;28;20056;-70
2021/12/27 23:48:25;;;;;;;11.57;3.38;;;;;;;9.19;100.00;98990.03;5052998;28;20125;-70
2021/12/27 23:51:09;;;;;;;12.30;3.58;;;;;;;9.15;100.00;98992.19;5052169;28;20052;-70
2021/12/27 23:53:53;;;;;;;11.02;2.58;;;;;;;9.22;100.00;98995.03;5052738;28;20055;-68
2021/12/27 23:56:37;;;;;;;6.20;2.80;;;;;;;9.19;100.00;98982.88;5051772;28;20088;-71
2021/12/27 23:59:20;;;;;;;9.45;3.10;;;;;;;9.18;100.00;98977.75;5051913;28;20082;-70
